This is the latest recevied weather packets stored in our database for station/object KD0RIH. If no packets are shown the sender has not sent any weather packets the latest 1 day(s).
| Time | Temp. | Humidity | Pressure | Rain* | Wind** | Luminosity | Snow |
|---|---|---|---|---|---|---|---|
| 1778015116 | 15.56° C | 40% | 1011.9 hPa | 0 mm | 0 m/s | 117 W/m² | - |
| 1778014813 | 15.56° C | 42% | 1011.6 hPa | 0 mm | 0.45 m/s, 322° | 144 W/m² | - |
| 1778014511 | 15° C | 42% | 1011.3 hPa | 0 mm | 0 m/s | 196 W/m² | - |
| 1778014208 | 15° C | 43% | 1011.5 hPa | 0 mm | 0.45 m/s, 314° | 142 W/m² | - |
| 1778013906 | 15° C | 43% | 1011.6 hPa | 0 mm | 0 m/s | 128 W/m² | - |
| 1778013603 | 15° C | 41% | 1011.5 hPa | 0 mm | 0 m/s | 134 W/m² | - |
| 1778013299 | 15° C | 42% | 1011.8 hPa | 0 mm | 0 m/s | 156 W/m² | - |
| 1778012995 | 15° C | 43% | 1011.7 hPa | 0 mm | 0 m/s | 126 W/m² | - |
| 1778012693 | 15° C | 42% | 1011.8 hPa | 0 mm | 0 m/s | 98 W/m² | - |
| 1778012388 | 15° C | 43% | 1011.7 hPa | 0 mm | 0 m/s | 125 W/m² | - |
| 1778012085 | 15.56° C | 41% | 1011.8 hPa | 0 mm | 0.45 m/s, 326° | 106 W/m² | - |
| 1778011783 | 15.56° C | 41% | 1011.8 hPa | 0 mm | 0 m/s | 107 W/m² | - |
| 1778011481 | 15.56° C | 42% | 1011.8 hPa | 0 mm | 0.45 m/s, 26° | 187 W/m² | - |
| 1778011176 | 16.11° C | 39% | 1011.7 hPa | 0 mm | 0 m/s | 250 W/m² | - |
| 1778010874 | 15.56° C | 42% | 1011.9 hPa | 0 mm | 0 m/s | 254 W/m² | - |
| 1778010571 | 16.11° C | 41% | 1012.1 hPa | 0 mm | 0 m/s | 216 W/m² | - |
| 1778010268 | 16.11° C | 40% | 1012.1 hPa | 0 mm | 0 m/s | 316 W/m² | - |
| 1778009968 | 15° C | 45% | 1012 hPa | 0 mm | 0 m/s | 345 W/m² | - |
| 1778009666 | 13.33° C | 48% | 1012.1 hPa | 0 mm | 0 m/s | 399 W/m² | - |
| 1778009364 | 13.33° C | 47% | 1012.1 hPa | 0 mm | 0.45 m/s, 290° | 295 W/m² | - |
| 1778009062 | 15° C | 43% | 1012 hPa | 0 mm | 0.45 m/s, 315° | 256 W/m² | - |
| 1778008759 | 15° C | 45% | 1012.1 hPa | 0 mm | 0 m/s | 301 W/m² | - |
| 1778008458 | 13.89° C | 46% | 1012.3 hPa | 0 mm | 0 m/s | 266 W/m² | - |
| 1778008154 | 15° C | 44% | 1012.3 hPa | 0 mm | 1.34 m/s, 301° | 266 W/m² | - |
| 1778007849 | 15.56° C | 42% | 1012.3 hPa | 0 mm | 0 m/s | 282 W/m² | - |
* Rain latest hour (hover to see other rain measurements)
** Current wind speed in m/s (hover to see current wind gust speed)